Time;durP1;ratioP1;P1;durP2;ratioP2;P2;SDS_P1;SDS_P2;PMS_P1;PMS_P2;Temp;Humidity;BMP_temperature;BMP_pressure;BME280_temperature;BME280_humidity;BME280_pressure;Samples;Min_cycle;Max_cycle;Signal;HPM_P1;HPM_P2
2021/05/06 00:02:30;;;;;;;40.05;22.65;;;;;;;10.33;73.68;93372.17;1813497;78;21081;-52
2021/05/06 00:32:34;;;;;;;31.07;19.15;;;;;;;10.47;75.06;93452.45;1813491;79;21152;-52
2021/05/06 00:34:35;;;;;;;30.27;19.48;;;;;;;10.48;74.97;93455.34;1802971;79;21053;-52
2021/05/06 00:37:03;;;;;;;34.15;19.75;;;;;;;10.49;75.32;93451.39;1813400;78;21204;-52
2021/05/06 00:39:39;;;;;;;25.52;16.50;;;;;;;10.46;75.75;93446.81;1813657;78;21144;-51
2021/05/06 01:06:34;;;;;;;18.37;13.00;;;;;;;10.35;77.16;93458.41;1813331;79;21172;-51
2021/05/06 01:09:07;;;;;;;18.57;11.75;;;;;;;10.28;77.55;93455.28;1813436;78;21129;-51
2021/05/06 01:12:17;;;;;;;14.40;10.93;;;;;;;10.25;77.85;93454.87;1813094;79;21176;-54
2021/05/06 01:14:06;;;;;;;15.98;10.82;;;;;;;10.19;78.15;93454.03;1793953;79;21152;-52
2021/05/06 01:16:52;;;;;;;16.73;10.70;;;;;;;10.15;78.40;93461.72;1813582;79;21336;-52
2021/05/06 01:19:20;;;;;;;12.40;9.23;;;;;;;10.11;78.74;93462.50;1813480;79;21148;-55
2021/05/06 01:21:48;;;;;;;8.60;7.70;;;;;;;10.14;78.84;93462.95;1813557;79;21184;-53
2021/05/06 01:24:17;;;;;;;11.83;8.23;;;;;;;10.20;78.91;93463.79;1813577;79;21088;-52
2021/05/06 01:32:17;;;;;;;9.95;7.00;;;;;;;10.21;78.46;93481.19;1807979;78;21585;-51
2021/05/06 01:34:32;;;;;;;12.90;6.80;;;;;;;10.14;78.40;93480.81;1805057;79;21132;-51
2021/05/06 01:37:12;;;;;;;11.15;7.25;;;;;;;10.07;78.34;93486.67;1807833;78;21141;-51
2021/05/06 01:42:35;;;;;;;9.33;7.20;;;;;;;10.06;78.35;93494.77;1807883;79;21364;-52
2021/05/06 01:47:43;;;;;;;7.50;5.85;;;;;;;10.02;78.47;93498.33;1807728;79;21195;-53
2021/05/06 01:50:22;;;;;;;6.75;5.83;;;;;;;10.02;78.32;93488.71;1807557;79;21925;-52
2021/05/06 01:58:28;;;;;;;9.90;6.80;;;;;;;9.85;78.05;93487.03;1807731;78;21101;-52
2021/05/06 02:00:59;;;;;;;7.95;6.85;;;;;;;9.75;78.40;93490.30;1805451;79;21077;-51
2021/05/06 02:03:23;;;;;;;9.50;6.75;;;;;;;9.71;78.75;93489.14;1807264;78;21070;-52
2021/05/06 02:05:53;;;;;;;10.03;6.08;;;;;;;9.70;78.80;93495.09;1807836;79;21101;-51
2021/05/06 02:08:23;;;;;;;5.67;4.97;;;;;;;9.73;79.03;93495.52;1807555;78;21160;-51
2021/05/06 02:11:00;;;;;;;5.97;5.20;;;;;;;9.77;78.81;93497.48;1807942;78;21176;-51
2021/05/06 02:13:35;;;;;;;8.93;5.47;;;;;;;9.75;78.52;93512.27;1702845;84;21123;-52
2021/05/06 02:16:15;;;;;;;6.10;5.33;;;;;;;9.70;78.43;93509.59;1807830;79;21045;-52
2021/05/06 02:18:37;;;;;;;4.72;4.22;;;;;;;9.68;78.37;93511.28;1806702;79;21069;-54
2021/05/06 02:21:07;;;;;;;6.58;4.30;;;;;;;9.65;78.26;93524.58;1807803;79;21181;-51
2021/05/06 02:23:37;;;;;;;4.45;4.05;;;;;;;9.61;77.88;93539.11;1807723;78;21900;-51
2021/05/06 02:26:05;;;;;;;7.70;4.08;;;;;;;9.61;77.74;93541.86;1807796;79;21097;-52
2021/05/06 02:28:33;;;;;;;5.05;3.90;;;;;;;9.61;77.61;93545.97;1807652;79;21101;-50
2021/05/06 02:31:01;;;;;;;6.60;4.58;;;;;;;9.58;77.57;93551.78;1807832;79;21151;-51
2021/05/06 02:33:28;;;;;;;4.72;4.22;;;;;;;9.53;77.81;93559.90;1807731;78;21366;-52
2021/05/06 02:35:57;;;;;;;4.28;3.80;;;;;;;9.49;77.84;93553.23;1807755;79;21112;-51
2021/05/06 02:38:25;;;;;;;4.97;3.90;;;;;;;9.51;77.76;93552.75;1807802;79;21081;-52
2021/05/06 02:40:54;;;;;;;4.37;3.98;;;;;;;9.49;77.57;93571.67;1807802;78;21069;-51
2021/05/06 02:43:21;;;;;;;5.78;4.90;;;;;;;9.45;77.45;93571.84;1807833;79;21093;-52
2021/05/06 02:45:49;;;;;;;5.85;3.83;;;;;;;9.41;77.45;93574.64;1778609;79;21199;-50
2021/05/06 02:48:17;;;;;;;4.20;3.80;;;;;;;9.38;77.31;93581.05;1807581;78;21195;-52
2021/05/06 02:50:52;;;;;;;3.92;3.67;;;;;;;9.36;77.38;93581.53;1807812;78;21050;-51
2021/05/06 02:53:19;;;;;;;3.90;3.45;;;;;;;9.36;77.03;93602.11;1807273;79;21517;-52
2021/05/06 02:56:11;;;;;;;3.80;3.50;;;;;;;9.35;76.95;93619.03;1808094;79;21101;-51
2021/05/06 03:03:49;;;;;;;3.80;3.50;;;;;;;9.34;76.54;93649.08;1807590;78;21492;-52
2021/05/06 03:06:24;;;;;;;4.47;3.90;;;;;;;9.31;76.43;93654.13;1807537;79;21097;-51
2021/05/06 03:08:54;;;;;;;4.58;3.45;;;;;;;9.28;76.06;93652.31;1807496;79;21164;-53
2021/05/06 03:24:29;;;;;;;2.67;2.47;;;;;;;8.71;74.71;93637.00;1807814;79;21201;-59
2021/05/06 03:26:56;;;;;;;3.83;2.60;;;;;;;8.65;74.74;93655.91;1807706;79;21121;-59
2021/05/06 03:29:31;;;;;;;3.47;3.17;;;;;;;8.63;74.62;93682.39;1802938;79;21065;-60
2021/05/06 03:42:55;;;;;;;2.98;2.77;;;;;;;8.79;73.32;93728.67;1799132;78;21088;-59
2021/05/06 03:45:54;;;;;;;3.15;2.95;;;;;;;8.74;72.95;93732.63;1797339;78;21489;-59
2021/05/06 04:03:17;;;;;;;3.02;2.83;;;;;;;8.63;73.14;93748.19;1799827;78;21152;-60
2021/05/06 04:18:20;;;;;;;4.03;3.62;;;;;;;9.02;73.04;93812.44;1799820;79;21372;-53
2021/05/06 04:26:26;;;;;;;3.85;3.45;;;;;;;9.12;72.19;93839.25;1799817;79;21331;-53
2021/05/06 04:37:08;;;;;;;3.17;2.98;;;;;;;9.05;71.83;93861.52;1799775;78;21053;-51
2021/05/06 04:39:46;;;;;;;2.90;2.70;;;;;;;9.09;71.73;93866.23;1799790;79;21041;-52
2021/05/06 05:03:55;;;;;;;4.08;3.58;;;;;;;10.04;70.49;93886.02;1854114;77;21617;-53
2021/05/06 05:06:21;;;;;;;3.05;2.85;;;;;;;10.27;69.76;93882.55;1826390;78;21092;-52
2021/05/06 05:09:05;;;;;;;3.37;2.92;;;;;;;10.49;69.03;93874.19;1827151;78;20898;-52
2021/05/06 05:19:34;;;;;;;12.90;11.60;;;;;;;10.65;66.01;93897.77;1825760;78;20956;-52
2021/05/06 05:26:58;;;;;;;4.45;3.65;;;;;;;10.26;64.84;93908.52;1888489;76;21779;-51
2021/05/06 05:29:27;;;;;;;4.35;3.95;;;;;;;10.17;64.95;93903.82;1774587;80;21147;-53
2021/05/06 05:31:56;;;;;;;4.80;3.98;;;;;;;10.12;64.35;93914.67;1836096;76;22071;-56
2021/05/06 05:34:38;;;;;;;8.00;7.00;;;;;;;9.95;64.60;93921.75;1821288;78;21134;-56
2021/05/06 05:37:03;;;;;;;5.25;4.72;;;;;;;9.84;64.96;93922.84;1819867;76;21217;-53
2021/05/06 05:39:38;;;;;;;4.15;3.75;;;;;;;9.75;64.46;93925.59;1836710;76;21168;-54
2021/05/06 05:42:13;;;;;;;4.10;3.77;;;;;;;9.67;64.50;93928.52;1818084;76;21107;-52
2021/05/06 05:55:12;;;;;;;7.80;5.22;;;;;;;9.42;66.36;93939.86;1775551;79;21138;-54
2021/05/06 05:57:40;;;;;;;5.55;4.62;;;;;;;9.50;66.53;93942.42;1827608;76;21375;-57
2021/05/06 06:00:11;;;;;;;8.58;4.05;;;;;;;9.59;66.92;93945.92;1817487;77;21150;-58
2021/05/06 06:02:38;;;;;;;8.00;4.83;;;;;;;9.67;66.38;93956.77;1818585;77;21146;-56
2021/05/06 06:05:09;;;;;;;4.20;3.80;;;;;;;9.75;66.51;93958.55;1785409;76;22046;-56
2021/05/06 06:07:37;;;;;;;4.40;4.00;;;;;;;9.88;65.79;93966.79;1788059;78;20976;-50
2021/05/06 06:10:06;;;;;;;4.87;3.70;;;;;;;9.94;65.88;93966.91;1721846;78;25173;-54
2021/05/06 06:12:34;;;;;;;3.72;3.42;;;;;;;10.01;66.13;93974.84;1702359;82;21267;-55
2021/05/06 06:15:04;;;;;;;5.92;5.03;;;;;;;10.10;66.19;93985.83;1712330;82;22116;-55
2021/05/06 06:20:11;;;;;;;5.37;4.28;;;;;;;10.24;64.66;93987.34;1852959;75;21801;-58
2021/05/06 06:22:40;;;;;;;5.65;3.60;;;;;;;10.15;64.77;93994.22;1816371;76;21049;-54
2021/05/06 06:25:12;;;;;;;4.40;4.00;;;;;;;10.18;64.51;93992.55;1820605;77;21316;-57
2021/05/06 06:27:41;;;;;;;3.58;3.27;;;;;;;10.22;64.37;93986.27;1831069;76;21212;-54
2021/05/06 06:30:11;;;;;;;4.53;3.33;;;;;;;10.29;64.17;93989.45;1834415;76;21177;-55
2021/05/06 06:32:39;;;;;;;6.17;4.50;;;;;;;10.34;63.69;93988.81;1836373;77;21192;-56
2021/05/06 06:35:09;;;;;;;5.08;4.58;;;;;;;10.38;63.39;93987.28;1826625;76;21187;-55
2021/05/06 06:37:37;;;;;;;5.53;4.10;;;;;;;10.47;63.39;93989.39;1811867;78;22187;-55
2021/05/06 06:40:07;;;;;;;4.60;4.08;;;;;;;10.57;62.13;93985.36;1819169;78;21137;-55
2021/05/06 06:42:36;;;;;;;4.58;3.75;;;;;;;10.69;61.75;93983.65;1817806;78;21715;-53
2021/05/06 06:45:07;;;;;;;4.92;3.47;;;;;;;10.81;61.35;93983.43;1823491;78;21133;-54
2021/05/06 06:47:35;;;;;;;9.15;4.45;;;;;;;10.79;60.43;93990.77;1815155;77;21200;-56
2021/05/06 06:50:05;;;;;;;9.08;4.92;;;;;;;10.73;60.17;93989.73;1828289;76;21196;-68
2021/05/06 06:52:33;;;;;;;9.00;3.83;;;;;;;10.67;60.62;93990.98;1837294;76;21188;-58
2021/05/06 06:55:02;;;;;;;7.20;3.90;;;;;;;10.71;60.80;93994.95;1849851;75;21115;-57
2021/05/06 06:57:30;;;;;;;9.20;5.33;;;;;;;10.78;60.97;93996.12;1837167;77;21120;-55
2021/05/06 06:59:58;;;;;;;12.90;5.87;;;;;;;10.84;60.12;93991.49;1821815;77;21140;-52
2021/05/06 07:02:27;;;;;;;17.48;8.35;;;;;;;10.89;59.83;94001.10;1826865;77;23441;-55
2021/05/06 07:04:58;;;;;;;10.40;6.00;;;;;;;10.96;59.66;94015.28;1801808;77;21204;-56
2021/05/06 07:07:28;;;;;;;13.40;8.98;;;;;;;11.00;58.92;94007.61;1804927;78;21304;-58
2021/05/06 07:09:57;;;;;;;7.17;5.28;;;;;;;11.06;59.17;94007.14;1811611;78;21110;-60
2021/05/06 07:12:25;;;;;;;8.83;5.60;;;;;;;11.18;59.49;94008.88;1836817;78;21175;-57
2021/05/06 07:14:53;;;;;;;14.75;8.58;;;;;;;11.30;59.47;94008.50;1796402;78;22255;-57
2021/05/06 07:17:21;;;;;;;12.88;5.37;;;;;;;11.42;58.87;94017.14;1793456;79;21183;-58
2021/05/06 07:19:51;;;;;;;7.10;4.67;;;;;;;11.50;57.84;94015.58;1793948;78;21201;-58
2021/05/06 07:22:19;;;;;;;4.75;3.80;;;;;;;11.52;57.47;94013.85;1773873;80;21197;-56
2021/05/06 07:24:50;;;;;;;3.62;3.00;;;;;;;11.53;58.60;94020.88;1792097;79;21134;-58
2021/05/06 07:27:20;;;;;;;8.88;4.67;;;;;;;11.59;58.37;94020.42;1792662;80;21182;-55
2021/05/06 07:29:51;;;;;;;6.00;3.52;;;;;;;11.70;58.82;94024.77;1805674;78;21127;-54
2021/05/06 07:32:20;;;;;;;6.70;3.62;;;;;;;11.85;59.06;94027.55;1806931;78;21205;-57
2021/05/06 07:34:50;;;;;;;4.58;3.42;;;;;;;11.99;58.81;94024.06;1804924;79;21589;-55
2021/05/06 07:37:19;;;;;;;3.58;3.12;;;;;;;12.16;57.93;94024.52;1778096;78;21069;-56
2021/05/06 07:39:49;;;;;;;3.65;2.25;;;;;;;12.29;57.99;94018.72;1826255;78;21192;-56
2021/05/06 07:42:19;;;;;;;3.42;2.87;;;;;;;12.40;57.86;94028.55;1800503;78;21173;-60
2021/05/06 07:44:51;;;;;;;5.05;3.50;;;;;;;12.45;56.70;94025.15;1804900;79;21648;-58
2021/05/06 07:47:21;;;;;;;4.47;3.25;;;;;;;12.56;57.19;94023.33;1804108;79;21168;-57
2021/05/06 07:49:51;;;;;;;11.68;3.70;;;;;;;12.69;57.08;94014.89;1787336;78;21168;-59
2021/05/06 07:52:22;;;;;;;7.87;3.60;;;;;;;12.80;57.38;94019.81;1778910;78;21225;-59
2021/05/06 07:54:55;;;;;;;5.37;3.10;;;;;;;13.00;55.59;94027.58;1825930;78;21266;-56
2021/05/06 07:57:24;;;;;;;3.72;3.00;;;;;;;13.19;55.52;94033.61;1812155;78;21220;-54
2021/05/06 07:59:52;;;;;;;4.60;2.50;;;;;;;13.34;55.28;94023.28;1793403;79;21185;-58
2021/05/06 08:02:22;;;;;;;4.50;2.72;;;;;;;13.47;53.25;94022.33;1794455;78;21427;-55
2021/05/06 08:04:50;;;;;;;4.22;2.40;;;;;;;13.51;52.62;94022.27;1792794;78;21894;-55
2021/05/06 08:07:19;;;;;;;2.65;2.35;;;;;;;13.55;53.88;94018.67;1806998;78;21699;-57
2021/05/06 08:09:49;;;;;;;4.15;2.25;;;;;;;13.74;53.26;94013.61;1786426;79;21195;-56
2021/05/06 08:12:19;;;;;;;8.43;2.80;;;;;;;13.98;53.68;94015.55;1805094;79;21085;-53
2021/05/06 08:14:49;;;;;;;3.25;2.52;;;;;;;14.22;52.37;94022.99;1804218;78;21124;-53
2021/05/06 08:17:17;;;;;;;11.70;2.75;;;;;;;14.41;50.53;94015.27;1804503;79;21345;-59
2021/05/06 08:19:47;;;;;;;4.75;2.58;;;;;;;14.49;50.90;94019.86;1808632;78;21154;-54
2021/05/06 08:22:16;;;;;;;5.45;2.85;;;;;;;14.66;50.04;94022.15;1804922;78;21331;-55
2021/05/06 08:24:44;;;;;;;16.05;3.55;;;;;;;14.76;48.13;94019.35;1805690;78;21254;-55
2021/05/06 08:27:13;;;;;;;14.60;2.60;;;;;;;14.67;47.14;94014.61;1799096;78;21177;-53
2021/05/06 08:29:42;;;;;;;2.60;1.80;;;;;;;14.72;45.73;94016.66;1797920;78;22869;-54
2021/05/06 08:32:11;;;;;;;3.15;2.27;;;;;;;14.90;42.92;94026.77;1794558;79;22253;-57
2021/05/06 08:34:39;;;;;;;5.55;2.33;;;;;;;14.92;42.39;94022.88;1778974;79;21419;-60
2021/05/06 08:37:08;;;;;;;5.42;2.20;;;;;;;14.89;41.77;94016.94;1808315;78;21145;-56
2021/05/06 08:39:36;;;;;;;4.03;2.10;;;;;;;14.89;41.86;94022.48;1815939;78;21664;-57
2021/05/06 08:42:06;;;;;;;6.42;2.65;;;;;;;14.98;39.57;94041.67;1795286;78;21401;-57
2021/05/06 08:44:36;;;;;;;3.12;1.98;;;;;;;15.05;39.15;94045.40;1815342;78;21185;-58
2021/05/06 08:47:06;;;;;;;9.43;2.27;;;;;;;15.00;38.26;94029.47;1795451;78;21207;-56
2021/05/06 08:49:37;;;;;;;6.55;2.20;;;;;;;14.99;38.78;94021.03;1776839;79;21176;-56
2021/05/06 08:52:12;;;;;;;4.55;2.00;;;;;;;15.00;37.72;94019.78;1775489;78;21101;-53
2021/05/06 08:54:41;;;;;;;3.20;2.00;;;;;;;14.96;35.55;94023.41;1793881;78;22596;-59
2021/05/06 08:57:09;;;;;;;3.65;1.80;;;;;;;14.88;36.23;94018.20;1800402;79;21184;-54
2021/05/06 08:59:38;;;;;;;5.08;2.30;;;;;;;14.93;37.18;94018.09;1799861;79;21196;-56
2021/05/06 09:02:06;;;;;;;9.50;2.80;;;;;;;15.02;37.05;94020.05;1800009;78;21184;-55
2021/05/06 09:04:35;;;;;;;5.95;2.52;;;;;;;15.09;35.65;94026.53;1793557;78;21276;-57
2021/05/06 09:07:05;;;;;;;2.50;1.92;;;;;;;15.07;35.49;94032.42;1797664;78;22281;-56
2021/05/06 09:09:48;;;;;;;2.65;2.40;;;;;;;14.99;35.33;94033.50;1803132;78;21188;-58
2021/05/06 09:12:22;;;;;;;3.30;2.25;;;;;;;14.95;36.04;94037.73;1809456;78;21137;-55
2021/05/06 09:14:51;;;;;;;7.67;2.62;;;;;;;14.94;36.93;94042.53;1765773;78;21174;-55
2021/05/06 09:17:32;;;;;;;20.75;3.50;;;;;;;15.05;37.57;94046.78;1784703;78;21278;-58
2021/05/06 09:20:16;;;;;;;11.30;3.17;;;;;;;15.03;38.20;94057.57;1722634;81;22416;-56
2021/05/06 09:22:47;;;;;;;9.78;3.17;;;;;;;14.95;38.36;94057.13;1747556;80;21193;-57
2021/05/06 09:25:35;;;;;;;4.60;1.90;;;;;;;14.96;38.54;94066.34;1738812;81;21249;-55
2021/05/06 09:28:10;;;;;;;3.42;2.25;;;;;;;14.98;37.78;94073.53;1728789;80;21713;-58
2021/05/06 09:31:01;;;;;;;7.55;2.00;;;;;;;15.02;37.13;94069.91;1742755;80;21208;-57
2021/05/06 09:33:37;;;;;;;11.88;2.35;;;;;;;15.12;37.33;94058.02;1741828;80;21405;-56
2021/05/06 09:36:20;;;;;;;1.80;1.70;;;;;;;15.25;35.17;94070.23;1749830;81;21237;-57
2021/05/06 09:38:51;;;;;;;4.40;2.55;;;;;;;15.27;34.78;94061.41;1750757;81;21224;-54
2021/05/06 09:41:22;;;;;;;3.30;1.98;;;;;;;15.21;35.10;94049.53;1737888;81;21253;-60
2021/05/06 09:43:51;;;;;;;4.20;2.50;;;;;;;15.16;34.61;94046.11;1747716;80;21185;-57
2021/05/06 09:46:32;;;;;;;4.78;2.25;;;;;;;15.14;35.54;94050.74;1718696;81;22118;-55
2021/05/06 09:49:11;;;;;;;2.92;2.45;;;;;;;15.28;36.04;94067.85;1757707;80;21040;-55
2021/05/06 09:51:47;;;;;;;5.72;3.12;;;;;;;15.47;35.76;94068.25;1750276;81;21208;-56
2021/05/06 09:54:22;;;;;;;7.83;3.02;;;;;;;15.64;35.50;94072.66;1740446;80;21169;-56
2021/05/06 09:57:06;;;;;;;5.83;1.82;;;;;;;15.73;32.91;94085.56;1708945;83;21522;-56
2021/05/06 09:59:39;;;;;;;3.37;1.60;;;;;;;15.65;33.69;94091.42;1749062;80;21390;-61
2021/05/06 10:02:10;;;;;;;11.10;2.02;;;;;;;15.63;34.67;94090.55;1731359;81;21189;-62
2021/05/06 10:04:40;;;;;;;4.25;2.47;;;;;;;15.78;34.64;94098.08;1730901;81;21200;-57
2021/05/06 10:07:23;;;;;;;4.40;2.25;;;;;;;16.05;35.37;94104.38;1742502;81;21780;-58
2021/05/06 10:10:02;;;;;;;2.60;2.25;;;;;;;16.25;35.13;94093.11;1722109;81;21194;-55
2021/05/06 10:12:35;;;;;;;7.97;2.15;;;;;;;16.21;34.17;94105.09;1723989;81;21226;-59
2021/05/06 10:15:08;;;;;;;2.53;2.30;;;;;;;16.03;33.83;94104.13;1743482;80;21147;-55
2021/05/06 10:20:15;;;;;;;4.87;3.08;;;;;;;15.62;34.18;94089.64;1870192;75;22165;-57
2021/05/06 10:22:43;;;;;;;7.17;3.12;;;;;;;15.73;33.97;94109.87;1839166;77;21168;-55
2021/05/06 10:25:12;;;;;;;9.15;2.70;;;;;;;15.83;34.42;94094.56;1839059;78;21360;-58
2021/05/06 10:27:41;;;;;;;2.83;2.47;;;;;;;16.03;34.43;94120.00;1838902;78;21545;-57
2021/05/06 10:30:14;;;;;;;4.60;2.90;;;;;;;15.91;34.20;94110.13;1839253;77;21136;-56
2021/05/06 10:32:44;;;;;;;3.10;2.85;;;;;;;15.79;33.21;94112.08;1839469;77;21200;-57
2021/05/06 10:35:17;;;;;;;3.17;1.98;;;;;;;15.92;32.44;94113.77;1838527;76;21485;-56
2021/05/06 10:37:55;;;;;;;5.55;3.65;;;;;;;16.27;32.36;94101.70;1895079;75;22727;-59
2021/05/06 10:40:30;;;;;;;4.47;3.27;;;;;;;16.53;32.15;94121.77;1859127;77;21199;-56
2021/05/06 10:43:27;;;;;;;3.95;2.17;;;;;;;16.75;31.68;94090.62;1857740;77;21449;-58
2021/05/06 10:46:03;;;;;;;5.53;2.27;;;;;;;16.81;32.72;94095.58;1859058;77;21068;-57
2021/05/06 10:49:02;;;;;;;4.55;3.00;;;;;;;17.03;31.88;94094.83;1859016;77;21106;-57
2021/05/06 10:51:48;;;;;;;6.83;2.77;;;;;;;17.41;31.52;94097.66;1861072;77;21130;-57
2021/05/06 10:54:31;;;;;;;4.80;2.00;;;;;;;17.85;30.44;94101.02;1868588;76;21173;-56
2021/05/06 10:57:03;;;;;;;9.53;2.22;;;;;;;18.32;29.16;94100.00;1870728;75;21183;-55
2021/05/06 10:59:31;;;;;;;4.00;2.30;;;;;;;18.32;28.71;94093.03;1869898;76;21176;-56
2021/05/06 11:02:00;;;;;;;2.72;1.87;;;;;;;18.07;29.40;94102.35;1822530;76;21198;-55
2021/05/06 11:04:39;;;;;;;4.03;1.70;;;;;;;18.17;30.20;94098.77;1839035;76;21226;-57
2021/05/06 11:07:18;;;;;;;3.05;1.67;;;;;;;18.24;29.78;94098.26;1845175;77;21141;-54
2021/05/06 11:09:51;;;;;;;4.42;1.70;;;;;;;18.27;28.53;94100.05;1845522;77;22021;-56
2021/05/06 11:12:23;;;;;;;3.37;1.60;;;;;;;18.10;29.05;94100.70;1845066;77;21101;-57
2021/05/06 11:15:06;;;;;;;2.58;1.22;;;;;;;18.42;29.21;94090.09;1848662;77;21582;-56
2021/05/06 11:17:42;;;;;;;2.33;1.22;;;;;;;18.66;27.85;94089.48;1857794;76;21162;-55
2021/05/06 11:20:16;;;;;;;4.35;1.70;;;;;;;19.12;27.76;94095.00;1859548;77;21170;-56
2021/05/06 11:22:54;;;;;;;3.98;1.95;;;;;;;19.35;28.64;94102.73;1857446;76;22253;-57
2021/05/06 11:28:05;;;;;;;4.00;1.60;;;;;;;19.92;28.15;94092.70;1869844;76;21681;-56
2021/05/06 11:30:49;;;;;;;1.85;1.07;;;;;;;19.71;27.43;94103.45;1787521;78;21148;-57
2021/05/06 11:33:25;;;;;;;3.57;1.50;;;;;;;19.24;27.09;94100.66;1802942;78;21666;-59
2021/05/06 11:36:08;;;;;;;6.22;1.52;;;;;;;18.57;27.60;94102.30;1790415;78;21204;-58
2021/05/06 11:38:43;;;;;;;6.12;1.67;;;;;;;18.00;27.52;94098.72;1804683;78;21234;-58
2021/05/06 11:41:16;;;;;;;2.42;1.20;;;;;;;17.56;28.25;94098.16;1797334;78;21258;-58
2021/05/06 11:43:56;;;;;;;2.05;1.65;;;;;;;17.16;29.18;94099.27;1800195;78;21254;-56
2021/05/06 11:46:29;;;;;;;5.40;1.60;;;;;;;16.83;30.14;94093.67;1799910;78;21252;-57
2021/05/06 11:48:59;;;;;;;6.92;1.87;;;;;;;16.62;30.85;94084.05;1815581;78;21579;-57
2021/05/06 11:51:43;;;;;;;3.47;1.40;;;;;;;17.11;31.53;94095.87;1807776;78;21149;-57
2021/05/06 11:54:15;;;;;;;2.92;1.37;;;;;;;17.81;29.64;94090.80;1803505;78;22213;-55
2021/05/06 11:57:02;;;;;;;7.83;1.47;;;;;;;18.56;28.92;94086.23;1826108;78;21189;-56
2021/05/06 11:59:33;;;;;;;5.60;1.52;;;;;;;18.62;28.30;94091.79;1831743;78;21107;-59
2021/05/06 12:02:07;;;;;;;9.20;1.92;;;;;;;18.30;28.29;94094.19;1823973;78;22345;-56
2021/05/06 12:04:37;;;;;;;10.40;1.40;;;;;;;17.85;29.18;94094.81;1812047;78;21223;-57
2021/05/06 12:07:16;;;;;;;8.38;1.50;;;;;;;17.44;29.67;94096.64;1795013;78;22195;-55
2021/05/06 12:09:43;;;;;;;4.15;1.60;;;;;;;17.21;30.35;94092.95;1811792;79;21170;-60
2021/05/06 12:12:23;;;;;;;10.93;2.20;;;;;;;17.00;30.83;94093.06;1794000;79;21434;-59
2021/05/06 12:14:59;;;;;;;8.18;2.75;;;;;;;16.85;31.31;94084.97;1791329;78;21461;-59
2021/05/06 12:17:28;;;;;;;2.62;2.33;;;;;;;16.76;30.98;94085.20;1796663;78;21135;-58
2021/05/06 12:19:58;;;;;;;4.05;2.08;;;;;;;16.73;30.72;94091.02;1808900;78;21679;-59
2021/05/06 12:22:28;;;;;;;2.50;2.00;;;;;;;16.63;30.55;94096.66;1782250;79;21315;-57
2021/05/06 12:24:56;;;;;;;9.05;2.10;;;;;;;16.95;30.81;94091.80;1763053;81;21225;-56
2021/05/06 12:27:29;;;;;;;4.30;2.47;;;;;;;17.45;30.54;94086.30;1803217;78;21144;-57
2021/05/06 12:30:02;;;;;;;12.88;8.43;;;;;;;18.29;29.58;94084.32;1808094;78;21150;-56
2021/05/06 12:32:33;;;;;;;5.10;3.70;;;;;;;19.28;28.04;94080.98;1799954;78;21217;-59
2021/05/06 12:35:01;;;;;;;3.80;2.90;;;;;;;20.02;27.09;94086.92;1823002;78;21104;-56
2021/05/06 12:37:33;;;;;;;13.78;5.97;;;;;;;20.12;25.43;94082.48;1811786;78;21343;-54
2021/05/06 12:40:04;;;;;;;7.90;4.30;;;;;;;20.10;25.66;94069.69;1821390;78;21399;-58
2021/05/06 12:42:34;;;;;;;28.07;3.05;;;;;;;20.26;26.73;94077.13;1816759;78;21193;-56
2021/05/06 12:45:18;;;;;;;7.60;2.42;;;;;;;20.18;25.62;94080.41;1798636;78;21136;-55
2021/05/06 12:47:49;;;;;;;16.02;2.20;;;;;;;19.64;26.40;94087.27;1806096;78;21172;-57
2021/05/06 12:50:26;;;;;;;85.77;6.17;;;;;;;18.80;27.01;94093.31;1818078;78;21179;-56
2021/05/06 12:52:59;;;;;;;16.55;3.10;;;;;;;17.90;28.29;94111.38;1810789;78;21642;-56
2021/05/06 12:55:29;;;;;;;3.15;1.62;;;;;;;17.12;30.08;94115.45;1797927;78;21253;-55
2021/05/06 12:58:16;;;;;;;9.95;2.17;;;;;;;17.04;30.67;94114.41;1819024;78;21623;-54
2021/05/06 13:01:02;;;;;;;6.78;1.62;;;;;;;17.60;30.37;94117.36;1788213;78;21199;-54
2021/05/06 13:03:41;;;;;;;9.48;2.62;;;;;;;18.47;29.52;94104.63;1806697;78;21205;-58
2021/05/06 13:06:11;;;;;;;7.42;2.10;;;;;;;19.02;28.05;94102.93;1801389;78;21423;-57
2021/05/06 13:08:43;;;;;;;10.20;2.00;;;;;;;19.27;27.86;94101.02;1802134;78;21188;-58
2021/05/06 13:11:14;;;;;;;9.33;2.10;;;;;;;19.58;27.33;94115.22;1811991;79;21194;-55
2021/05/06 13:13:50;;;;;;;7.42;3.62;;;;;;;20.15;27.26;94100.98;1801320;79;21054;-55
2021/05/06 13:16:39;;;;;;;2.27;1.90;;;;;;;20.49;26.84;94102.88;1811106;77;21234;-59
2021/05/06 13:19:11;;;;;;;2.60;1.75;;;;;;;20.60;25.54;94104.78;1795232;78;21455;-56
2021/05/06 13:21:57;;;;;;;7.20;2.07;;;;;;;20.54;25.64;94086.68;1821036;77;21159;-57
2021/05/06 13:24:42;;;;;;;4.55;2.33;;;;;;;20.54;26.04;94082.48;1757897;79;21223;-56
2021/05/06 13:27:20;;;;;;;5.92;2.30;;;;;;;20.79;26.20;94087.37;1815852;78;21169;-58
2021/05/06 13:29:58;;;;;;;4.25;2.20;;;;;;;20.72;25.92;94099.17;1778929;78;21180;-58
2021/05/06 13:32:37;;;;;;;10.45;2.02;;;;;;;19.88;26.67;94085.87;1811806;77;22326;-55
2021/05/06 13:35:08;;;;;;;14.20;4.72;;;;;;;19.04;27.24;94092.02;1746215;79;21618;-60
2021/05/06 13:37:46;;;;;;;7.92;2.55;;;;;;;18.23;28.22;94107.23;1793524;78;21217;-58
2021/05/06 13:40:14;;;;;;;2.70;1.67;;;;;;;17.76;29.33;94108.23;1795005;78;21186;-61
2021/05/06 13:42:42;;;;;;;11.03;2.52;;;;;;;17.97;29.01;94104.66;1807201;78;21171;-56
2021/05/06 13:45:12;;;;;;;10.08;2.95;;;;;;;18.33;29.07;94102.16;1778882;78;21242;-56
2021/05/06 13:47:40;;;;;;;10.13;3.45;;;;;;;18.22;29.32;94095.98;1781030;80;21217;-59
2021/05/06 13:50:11;;;;;;;8.08;2.15;;;;;;;17.76;29.12;94101.28;1785253;78;21120;-56
2021/05/06 13:52:39;;;;;;;4.20;1.98;;;;;;;17.39;29.71;94106.38;1789609;78;21135;-58
2021/05/06 13:55:10;;;;;;;8.70;2.60;;;;;;;17.04;30.17;94109.63;1788271;78;21198;-58
2021/05/06 13:57:40;;;;;;;4.60;2.30;;;;;;;17.00;31.09;94103.56;1790403;78;23927;-59
2021/05/06 14:00:10;;;;;;;7.92;3.25;;;;;;;17.81;29.21;94111.66;1781906;78;21577;-57
2021/05/06 14:02:41;;;;;;;3.83;2.00;;;;;;;18.79;27.37;94115.49;1790821;78;21131;-57
2021/05/06 14:05:12;;;;;;;5.90;1.50;;;;;;;19.39;26.02;94114.36;1788746;78;21170;-58
2021/05/06 14:07:40;;;;;;;7.65;1.77;;;;;;;19.27;26.10;94095.44;1790656;78;21094;-57
2021/05/06 14:10:10;;;;;;;18.40;2.42;;;;;;;19.63;25.54;94106.06;1788012;78;21640;-58
2021/05/06 14:12:38;;;;;;;3.52;1.35;;;;;;;20.20;24.60;94098.12;1790253;78;21488;-58
2021/05/06 14:15:09;;;;;;;3.62;2.58;;;;;;;20.11;24.35;94093.54;1794008;78;21158;-57
2021/05/06 14:17:36;;;;;;;4.22;2.00;;;;;;;19.56;25.04;94098.23;1787784;78;21133;-57
2021/05/06 14:20:06;;;;;;;12.50;2.72;;;;;;;19.31;24.07;94086.92;1771002;78;21417;-58
2021/05/06 14:22:35;;;;;;;6.28;4.45;;;;;;;19.64;24.44;94091.45;1778414;78;21459;-57
2021/05/06 14:25:04;;;;;;;4.03;2.58;;;;;;;20.03;24.18;94101.00;1800661;77;21178;-56
2021/05/06 14:27:36;;;;;;;5.90;1.82;;;;;;;19.89;23.90;94096.53;1845392;77;21122;-57
2021/05/06 14:30:07;;;;;;;9.58;1.70;;;;;;;19.26;24.05;94102.30;1772683;79;21176;-59
2021/05/06 14:32:37;;;;;;;3.60;2.17;;;;;;;18.71;25.01;94115.16;1807615;78;21210;-59
2021/05/06 14:35:07;;;;;;;6.45;2.12;;;;;;;18.19;25.97;94108.14;1768001;78;21933;-58
2021/05/06 14:37:35;;;;;;;9.75;2.02;;;;;;;17.76;26.95;94116.58;1791369;78;21262;-58
2021/05/06 14:40:06;;;;;;;7.65;2.22;;;;;;;17.32;26.87;94111.03;1802099;78;21142;-58
2021/05/06 14:42:35;;;;;;;7.72;3.25;;;;;;;16.92;27.63;94111.52;1797568;78;21133;-57
2021/05/06 14:45:04;;;;;;;3.40;2.62;;;;;;;16.72;27.90;94096.45;1801914;78;21127;-56
2021/05/06 14:47:32;;;;;;;2.10;1.70;;;;;;;16.98;27.81;94103.93;1806841;78;21552;-55
2021/05/06 14:50:00;;;;;;;1.90;1.70;;;;;;;17.17;27.38;94107.73;1801750;78;21091;-59
2021/05/06 14:52:28;;;;;;;2.17;2.00;;;;;;;17.19;27.16;94107.98;1784190;78;21723;-56
2021/05/06 14:54:57;;;;;;;3.75;1.57;;;;;;;17.82;27.41;94105.56;1808405;77;21587;-58
2021/05/06 14:57:26;;;;;;;5.30;2.20;;;;;;;18.82;26.17;94114.45;1787811;78;22177;-55
2021/05/06 14:59:54;;;;;;;5.78;1.67;;;;;;;19.47;24.88;94111.14;1802005;78;21370;-55
2021/05/06 15:02:22;;;;;;;9.63;2.70;;;;;;;19.97;24.50;94104.47;1818760;78;21982;-59
2021/05/06 15:04:50;;;;;;;5.05;2.37;;;;;;;20.34;23.87;94115.78;1818018;78;21100;-56
2021/05/06 15:07:21;;;;;;;10.75;3.05;;;;;;;19.96;23.97;94096.60;1795121;78;21393;-58
2021/05/06 15:09:50;;;;;;;7.50;2.58;;;;;;;19.23;24.67;94079.63;1790563;80;21648;-59